Time;durP1;ratioP1;P1;durP2;ratioP2;P2;SDS_P1;SDS_P2;PMS_P1;PMS_P2;Temp;Humidity;BMP_temperature;BMP_pressure;BME280_temperature;BME280_humidity;BME280_pressure;Samples;Min_cycle;Max_cycle;Signal;HPM_P1;HPM_P2
2023/06/01 00:01:46;;;;;;;17.13;5.75;;;11.70;99.90;;;;;;4945240;29;20050;-71
2023/06/01 00:04:13;;;;;;;13.30;5.60;;;11.60;99.90;;;;;;4943813;28;20337;-70
2023/06/01 00:06:39;;;;;;;15.52;5.47;;;11.60;99.90;;;;;;4939807;28;20412;-71
2023/06/01 00:09:06;;;;;;;14.18;5.70;;;11.70;99.90;;;;;;4934264;29;20046;-71
2023/06/01 00:11:31;;;;;;;18.48;5.60;;;11.70;99.90;;;;;;4942713;29;20059;-70
2023/06/01 00:13:57;;;;;;;12.60;4.80;;;11.60;99.90;;;;;;4942737;29;20561;-71
2023/06/01 00:16:23;;;;;;;17.33;5.53;;;11.60;99.90;;;;;;4937558;29;20198;-71
2023/06/01 00:18:51;;;;;;;19.98;5.95;;;11.50;99.90;;;;;;4940152;29;20035;-71
2023/06/01 00:21:17;;;;;;;17.40;5.25;;;11.50;99.90;;;;;;4942044;29;20043;-71
2023/06/01 00:23:42;;;;;;;16.80;4.80;;;11.50;99.90;;;;;;4941540;28;20059;-71
2023/06/01 00:26:08;;;;;;;14.13;4.93;;;11.50;99.90;;;;;;4939763;28;20961;-71
2023/06/01 00:28:34;;;;;;;18.65;5.07;;;11.40;99.90;;;;;;4953525;28;20043;-70
2023/06/01 00:31:00;;;;;;;14.13;5.38;;;11.40;99.90;;;;;;4946393;29;20098;-70
2023/06/01 00:33:26;;;;;;;23.27;5.50;;;11.40;99.90;;;;;;4938441;29;20039;-70
2023/06/01 00:35:52;;;;;;;12.02;5.05;;;11.40;99.90;;;;;;4929221;29;20582;-71
2023/06/01 00:38:18;;;;;;;13.15;5.13;;;11.40;99.90;;;;;;4944780;29;20770;-71
2023/06/01 00:40:43;;;;;;;14.60;5.32;;;11.40;99.90;;;;;;4945158;29;20055;-71
2023/06/01 00:43:10;;;;;;;17.98;6.50;;;11.40;99.90;;;;;;4944690;29;20377;-70
2023/06/01 00:45:37;;;;;;;16.40;6.07;;;11.50;99.90;;;;;;4942593;29;20044;-70
2023/06/01 00:48:04;;;;;;;13.35;5.88;;;11.40;99.90;;;;;;4944393;29;20407;-71
2023/06/01 00:50:30;;;;;;;18.83;5.68;;;11.40;99.90;;;;;;4928073;29;20043;-71
2023/06/01 00:52:58;;;;;;;16.45;5.68;;;11.30;99.90;;;;;;4945606;29;20039;-71
2023/06/01 00:55:28;;;;;;;19.08;6.22;;;11.60;99.90;;;;;;4940813;28;20051;-71
2023/06/01 00:57:55;;;;;;;20.15;5.97;;;11.30;99.90;;;;;;4928590;29;20059;-71
2023/06/01 01:00:22;;;;;;;18.13;5.22;;;11.30;99.90;;;;;;4944096;29;20570;-70
2023/06/01 01:02:48;;;;;;;15.32;5.43;;;11.30;99.90;;;;;;4942223;28;20464;-71
2023/06/01 01:05:16;;;;;;;16.70;6.35;;;11.30;99.90;;;;;;4967564;28;20043;-70
2023/06/01 01:08:05;;;;;;;17.90;5.20;;;11.30;99.90;;;;;;4946350;28;20118;-70
2023/06/01 01:10:52;;;;;;;15.98;6.20;;;11.30;99.90;;;;;;4969393;28;20075;-71
2023/06/01 01:13:20;;;;;;;14.13;5.85;;;11.30;99.90;;;;;;4942876;29;20046;-71
2023/06/01 01:16:07;;;;;;;18.58;6.10;;;11.30;99.90;;;;;;4944757;28;20122;-70
2023/06/01 01:18:54;;;;;;;14.95;5.45;;;11.30;99.90;;;;;;4954650;28;20397;-70
2023/06/01 01:21:28;;;;;;;17.63;5.57;;;11.20;99.90;;;;;;4929331;29;20705;-71
2023/06/01 01:24:24;;;;;;;14.77;5.30;;;11.20;99.90;;;;;;4944495;28;20047;-71
2023/06/01 01:27:11;;;;;;;13.10;5.57;;;11.20;99.90;;;;;;4945596;29;20090;-71
2023/06/01 01:29:40;;;;;;;14.02;5.35;;;11.20;99.90;;;;;;4931245;29;20138;-71
2023/06/01 01:32:06;;;;;;;12.02;4.85;;;11.20;99.90;;;;;;4940967;28;20051;-71
2023/06/01 01:34:32;;;;;;;11.90;4.97;;;11.20;99.90;;;;;;4944489;28;20051;-70
2023/06/01 01:36:59;;;;;;;13.82;5.38;;;11.10;99.90;;;;;;4939522;29;20050;-71
2023/06/01 01:39:25;;;;;;;17.63;5.22;;;11.10;99.90;;;;;;4931044;29;20051;-71
2023/06/01 01:41:50;;;;;;;16.88;5.47;;;11.10;99.90;;;;;;4945770;29;20552;-72
2023/06/01 01:44:17;;;;;;;13.20;5.35;;;11.10;99.90;;;;;;4928876;29;20543;-70
2023/06/01 01:47:06;;;;;;;14.55;6.22;;;11.10;99.90;;;;;;4940816;28;20047;-71
2023/06/01 01:49:44;;;;;;;13.00;5.00;;;11.10;99.90;;;;;;4942774;29;20126;-71
2023/06/01 01:52:26;;;;;;;12.88;5.00;;;11.10;99.90;;;;;;4942195;28;20850;-71
2023/06/01 01:54:53;;;;;;;13.15;4.95;;;11.10;99.90;;;;;;4939067;29;20074;-71
2023/06/01 01:57:22;;;;;;;10.77;4.88;;;11.10;99.90;;;;;;4943129;29;20436;-70
2023/06/01 01:59:49;;;;;;;11.43;4.47;;;11.10;99.90;;;;;;4925048;29;20125;-70
2023/06/01 02:02:15;;;;;;;12.30;4.38;;;11.10;99.90;;;;;;4943208;28;20043;-70
2023/06/01 02:04:42;;;;;;;14.52;4.50;;;11.10;99.90;;;;;;4943694;28;20133;-71
2023/06/01 02:07:08;;;;;;;12.85;4.38;;;11.10;99.90;;;;;;4945241;29;20059;-70
2023/06/01 02:09:34;;;;;;;9.57;4.30;;;11.10;99.90;;;;;;4938374;29;20039;-71
2023/06/01 02:12:00;;;;;;;12.93;3.75;;;11.10;99.90;;;;;;4946807;28;20102;-71
2023/06/01 02:14:26;;;;;;;12.23;4.07;;;11.10;99.90;;;;;;4946463;29;20054;-70
2023/06/01 02:16:55;;;;;;;12.27;3.60;;;11.10;99.90;;;;;;4940721;29;20050;-71
2023/06/01 02:19:21;;;;;;;14.32;3.53;;;11.00;99.90;;;;;;4943760;28;20551;-71
2023/06/01 02:21:47;;;;;;;12.85;3.80;;;11.10;99.90;;;;;;4942593;29;20059;-71
2023/06/01 02:24:13;;;;;;;14.98;3.45;;;11.10;99.90;;;;;;4965322;28;20527;-70
2023/06/01 02:26:40;;;;;;;8.43;3.38;;;11.10;99.90;;;;;;4945394;29;20169;-71
2023/06/01 02:29:05;;;;;;;15.48;3.60;;;11.00;99.90;;;;;;4946815;28;20058;-70
2023/06/01 02:31:32;;;;;;;9.43;3.70;;;11.00;99.90;;;;;;4939772;29;20511;-70
2023/06/01 02:33:59;;;;;;;8.68;3.17;;;11.00;99.90;;;;;;4941017;29;20211;-71
2023/06/01 02:36:26;;;;;;;15.88;4.13;;;11.00;99.90;;;;;;4928966;29;20055;-71
2023/06/01 02:38:52;;;;;;;10.70;3.90;;;11.00;99.90;;;;;;4944402;29;20122;-71
2023/06/01 02:41:17;;;;;;;12.93;3.33;;;11.00;99.90;;;;;;4941512;29;20074;-70
2023/06/01 02:43:43;;;;;;;10.43;3.90;;;11.00;99.90;;;;;;4940921;29;20500;-70
2023/06/01 02:46:09;;;;;;;11.45;2.95;;;11.00;99.90;;;;;;4939476;29;20035;-70
2023/06/01 02:48:34;;;;;;;11.10;3.25;;;11.10;99.90;;;;;;4943429;28;20043;-71
2023/06/01 02:51:00;;;;;;;12.40;3.72;;;11.10;99.90;;;;;;4937701;28;20051;-70
2023/06/01 02:53:28;;;;;;;15.10;3.88;;;11.10;99.90;;;;;;4942495;29;20054;-71
2023/06/01 02:55:54;;;;;;;14.38;4.20;;;11.10;99.90;;;;;;4942851;29;21375;-71
2023/06/01 02:58:20;;;;;;;8.95;3.70;;;11.10;99.90;;;;;;4941343;29;20048;-70
2023/06/01 03:00:46;;;;;;;10.15;3.13;;;11.00;99.90;;;;;;4943300;29;20040;-71
2023/06/01 03:03:12;;;;;;;13.57;3.25;;;11.00;99.90;;;;;;4942882;29;20075;-70
2023/06/01 03:05:38;;;;;;;8.82;3.22;;;11.00;99.90;;;;;;4942681;29;20160;-70
2023/06/01 03:08:08;;;;;;;12.52;3.88;;;11.00;99.90;;;;;;4942277;29;20043;-71
2023/06/01 03:10:33;;;;;;;13.75;3.08;;;11.00;99.90;;;;;;4938115;29;20039;-71
2023/06/01 03:12:59;;;;;;;10.48;3.28;;;11.00;99.90;;;;;;4938883;29;20047;-70
2023/06/01 03:15:27;;;;;;;9.90;3.35;;;11.00;99.90;;;;;;4943259;28;20035;-70
2023/06/01 03:17:53;;;;;;;11.65;3.35;;;11.00;99.90;;;;;;4942630;28;20424;-70
2023/06/01 03:20:18;;;;;;;11.30;3.45;;;11.00;99.90;;;;;;4958524;28;20109;-71
2023/06/01 03:22:45;;;;;;;10.10;3.17;;;11.00;99.90;;;;;;4943438;28;20047;-70
2023/06/01 03:25:12;;;;;;;9.90;4.00;;;11.10;99.90;;;;;;4941232;28;20447;-70
2023/06/01 03:27:42;;;;;;;12.35;4.25;;;11.10;99.90;;;;;;4926893;29;20077;-70
2023/06/01 03:30:10;;;;;;;11.90;4.18;;;11.10;99.90;;;;;;4947236;28;20062;-71
2023/06/01 03:32:43;;;;;;;11.30;3.78;;;11.00;99.90;;;;;;4944043;29;20050;-70
2023/06/01 03:35:10;;;;;;;16.15;3.97;;;11.00;99.90;;;;;;4937641;28;20119;-70
2023/06/01 03:37:37;;;;;;;10.70;4.00;;;11.00;99.90;;;;;;4938576;29;20047;-71
2023/06/01 03:40:12;;;;;;;14.98;4.43;;;11.10;99.90;;;;;;4936075;28;20048;-70
2023/06/01 03:42:41;;;;;;;10.98;3.75;;;11.00;99.90;;;;;;4939036;29;20749;-71
2023/06/01 03:45:08;;;;;;;11.80;4.15;;;11.00;99.90;;;;;;4942805;29;20506;-70
2023/06/01 03:47:34;;;;;;;14.02;4.45;;;11.00;99.90;;;;;;4940726;28;20078;-70
2023/06/01 03:50:01;;;;;;;18.30;4.05;;;11.10;99.90;;;;;;4942055;29;20067;-71
2023/06/01 03:52:30;;;;;;;8.52;4.35;;;11.00;99.90;;;;;;4945006;29;20510;-70
2023/06/01 03:54:57;;;;;;;14.65;5.07;;;11.00;99.90;;;;;;4940462;28;20050;-71
2023/06/01 03:57:23;;;;;;;11.98;3.75;;;11.00;99.90;;;;;;4943832;28;20063;-71
2023/06/01 03:59:50;;;;;;;12.65;4.10;;;11.10;99.90;;;;;;4946545;28;20043;-71
2023/06/01 04:02:17;;;;;;;12.30;4.50;;;11.00;99.90;;;;;;4947409;29;20057;-70
2023/06/01 04:04:45;;;;;;;14.65;4.82;;;11.10;99.90;;;;;;4951112;28;20051;-71
2023/06/01 04:07:14;;;;;;;16.90;4.53;;;11.10;99.90;;;;;;4951176;29;20086;-70
2023/06/01 04:09:44;;;;;;;13.80;4.57;;;11.10;99.90;;;;;;4941922;29;20384;-70
2023/06/01 04:14:45;;;;;;;11.40;3.88;;;11.10;99.90;;;;;;5071908;23;19929;-71
2023/06/01 04:17:10;;;;;;;10.48;4.03;;;11.10;99.90;;;;;;5014396;28;20535;-72
2023/06/01 04:19:38;;;;;;;9.90;4.10;;;11.10;99.90;;;;;;5016949;28;20080;-71
2023/06/01 04:22:04;;;;;;;14.13;4.30;;;11.10;99.90;;;;;;5020661;28;20409;-71
2023/06/01 04:24:29;;;;;;;13.00;4.03;;;11.10;99.90;;;;;;5020961;28;20057;-72
2023/06/01 04:26:56;;;;;;;12.82;4.10;;;11.00;99.90;;;;;;5017580;28;20050;-72
2023/06/01 04:29:24;;;;;;;10.40;4.05;;;11.10;99.90;;;;;;5019432;28;20038;-71
2023/06/01 04:31:50;;;;;;;13.88;4.05;;;11.10;99.90;;;;;;5018087;28;20099;-72
2023/06/01 04:34:16;;;;;;;12.40;4.38;;;11.10;99.90;;;;;;5020122;28;20486;-72
2023/06/01 04:36:42;;;;;;;14.35;4.07;;;11.00;99.90;;;;;;5024909;28;20033;-71
2023/06/01 04:39:08;;;;;;;14.00;5.05;;;11.00;99.90;;;;;;5018942;28;20044;-72
2023/06/01 04:41:35;;;;;;;12.55;4.80;;;11.00;99.90;;;;;;5018541;28;20046;-71
2023/06/01 04:44:05;;;;;;;17.27;4.40;;;11.00;99.90;;;;;;5019306;28;20057;-71
2023/06/01 04:46:30;;;;;;;11.65;4.15;;;11.10;99.90;;;;;;5022058;28;20707;-71
2023/06/01 04:48:58;;;;;;;12.65;4.05;;;11.00;99.90;;;;;;5014481;28;20049;-71
2023/06/01 04:51:24;;;;;;;11.05;3.95;;;11.30;99.90;;;;;;5023367;28;20053;-72
2023/06/01 04:53:51;;;;;;;16.13;5.00;;;11.10;99.90;;;;;;5014984;28;20046;-71
2023/06/01 04:56:26;;;;;;;10.82;3.97;;;11.10;99.90;;;;;;5033736;28;20045;-71
2023/06/01 04:58:53;;;;;;;14.55;5.63;;;11.00;99.90;;;;;;5017102;28;20080;-71
2023/06/01 05:01:19;;;;;;;11.07;4.65;;;11.00;99.90;;;;;;5019053;28;20048;-71
2023/06/01 05:03:45;;;;;;;10.13;3.70;;;11.10;99.90;;;;;;5022346;28;20690;-71
2023/06/01 05:06:12;;;;;;;6.85;3.40;;;11.10;99.90;;;;;;5022579;28;20041;-71
2023/06/01 05:08:41;;;;;;;14.73;4.13;;;11.10;99.90;;;;;;5028530;28;20044;-70
2023/06/01 05:11:09;;;;;;;10.65;3.63;;;11.10;99.90;;;;;;5016618;28;20030;-71
2023/06/01 05:13:39;;;;;;;14.35;3.92;;;11.10;99.90;;;;;;5009123;28;20053;-71
2023/06/01 05:16:07;;;;;;;10.43;3.80;;;11.10;99.90;;;;;;5011026;28;20123;-71
2023/06/01 05:18:34;;;;;;;12.25;4.50;;;11.10;99.90;;;;;;5039386;28;20404;-71
2023/06/01 05:20:59;;;;;;;12.43;3.80;;;11.10;99.90;;;;;;5020567;28;20046;-71
2023/06/01 05:23:26;;;;;;;9.20;3.92;;;11.10;99.90;;;;;;5027920;28;20820;-71
2023/06/01 05:25:54;;;;;;;10.23;4.00;;;11.10;99.90;;;;;;5012875;28;20045;-71
2023/06/01 05:28:20;;;;;;;13.00;4.35;;;11.50;99.90;;;;;;5018222;28;20045;-72
2023/06/01 05:30:46;;;;;;;15.30;4.22;;;11.40;99.90;;;;;;5015612;28;21521;-72
2023/06/01 05:33:13;;;;;;;15.73;4.13;;;11.20;99.90;;;;;;5006439;28;20042;-71
2023/06/01 05:35:38;;;;;;;14.02;3.85;;;11.10;99.90;;;;;;5015561;28;20633;-71
2023/06/01 05:38:04;;;;;;;18.60;4.55;;;11.20;99.90;;;;;;5012925;28;20041;-72
2023/06/01 05:40:30;;;;;;;15.05;4.07;;;11.20;99.90;;;;;;5007453;28;20383;-71
2023/06/01 05:42:56;;;;;;;14.00;4.60;;;11.20;99.90;;;;;;5021108;28;20049;-71
2023/06/01 05:45:21;;;;;;;15.90;4.28;;;11.20;99.90;;;;;;5001422;28;20040;-71
2023/06/01 05:47:47;;;;;;;12.07;4.18;;;11.30;99.90;;;;;;5012353;28;20046;-71
2023/06/01 05:50:13;;;;;;;12.27;3.72;;;11.30;99.90;;;;;;5013263;28;20041;-71
2023/06/01 05:52:42;;;;;;;11.32;3.83;;;11.30;99.90;;;;;;5010984;28;20868;-71
2023/06/01 05:55:08;;;;;;;14.60;4.20;;;11.30;99.90;;;;;;5023738;28;20045;-71
2023/06/01 05:57:34;;;;;;;12.10;3.60;;;11.30;99.90;;;;;;5026098;28;20152;-71
2023/06/01 05:59:59;;;;;;;11.13;3.90;;;11.30;99.90;;;;;;5020872;28;20168;-71
2023/06/01 06:02:26;;;;;;;12.05;3.97;;;11.30;99.90;;;;;;5021426;28;20037;-71
2023/06/01 06:04:51;;;;;;;11.13;4.00;;;11.30;99.90;;;;;;5019072;28;20041;-71
2023/06/01 06:07:17;;;;;;;17.38;3.92;;;11.30;99.90;;;;;;5021575;28;20056;-71
2023/06/01 06:09:43;;;;;;;10.38;3.78;;;11.30;99.90;;;;;;5017463;28;20087;-72
2023/06/01 06:12:08;;;;;;;12.63;3.90;;;11.30;99.90;;;;;;5011568;28;20046;-71
2023/06/01 06:14:34;;;;;;;11.48;3.70;;;11.30;99.90;;;;;;5013069;28;20052;-71
2023/06/01 06:17:00;;;;;;;11.35;3.30;;;11.20;99.90;;;;;;5008181;28;20049;-72
2023/06/01 06:19:26;;;;;;;12.30;2.90;;;11.40;99.90;;;;;;5011547;28;20753;-72
2023/06/01 06:21:51;;;;;;;17.10;3.28;;;11.40;99.90;;;;;;5016215;28;20065;-72
2023/06/01 06:24:17;;;;;;;10.35;2.70;;;11.40;99.90;;;;;;5017605;28;20501;-73
2023/06/01 06:26:43;;;;;;;8.32;2.55;;;11.40;99.90;;;;;;5026608;28;20400;-72
2023/06/01 06:29:08;;;;;;;8.68;2.58;;;11.40;99.90;;;;;;5021039;28;20095;-72
2023/06/01 06:31:34;;;;;;;10.82;3.03;;;11.40;99.90;;;;;;5013825;28;20151;-72
2023/06/01 06:34:00;;;;;;;10.98;3.05;;;11.40;99.90;;;;;;5024677;28;20048;-72
2023/06/01 06:36:26;;;;;;;8.00;2.35;;;11.40;99.90;;;;;;5020462;28;20084;-71
2023/06/01 06:38:52;;;;;;;6.70;2.40;;;11.50;99.90;;;;;;5022733;28;20159;-72
2023/06/01 06:41:17;;;;;;;7.40;2.33;;;11.40;99.90;;;;;;5023471;28;20041;-71
2023/06/01 06:43:43;;;;;;;9.00;2.40;;;11.50;99.90;;;;;;5021486;28;20037;-71
2023/06/01 06:46:09;;;;;;;8.15;2.30;;;11.50;99.90;;;;;;5023650;28;20045;-71
2023/06/01 06:48:35;;;;;;;6.28;2.47;;;11.50;99.90;;;;;;5020937;28;20168;-72
2023/06/01 06:51:02;;;;;;;8.40;2.17;;;11.50;99.90;;;;;;5023199;28;20416;-72
2023/06/01 06:53:27;;;;;;;11.25;2.45;;;11.50;99.90;;;;;;5019205;28;20132;-71
2023/06/01 06:55:53;;;;;;;12.57;3.05;;;11.50;99.90;;;;;;5026376;28;20103;-72
2023/06/01 06:58:19;;;;;;;9.35;2.25;;;11.50;99.90;;;;;;5025483;28;20045;-71
2023/06/01 07:00:45;;;;;;;8.05;2.67;;;11.50;99.90;;;;;;5017387;28;20843;-72
2023/06/01 07:03:11;;;;;;;10.07;2.35;;;11.50;99.90;;;;;;5023472;28;20038;-72
2023/06/01 07:05:36;;;;;;;11.65;2.70;;;11.50;99.90;;;;;;5022943;28;20091;-72
2023/06/01 07:08:02;;;;;;;10.05;2.60;;;11.50;99.90;;;;;;5024868;28;20509;-71
2023/06/01 07:10:28;;;;;;;11.07;2.67;;;11.50;99.90;;;;;;5024608;28;20042;-71
2023/06/01 07:12:53;;;;;;;7.07;2.10;;;11.60;99.90;;;;;;5024946;28;20052;-72
2023/06/01 07:15:19;;;;;;;12.20;2.30;;;11.60;99.90;;;;;;5018191;28;20049;-71
2023/06/01 07:17:45;;;;;;;5.20;2.00;;;11.60;99.90;;;;;;5025364;28;20478;-72
2023/06/01 07:20:11;;;;;;;8.05;2.35;;;11.60;99.90;;;;;;5037749;28;20049;-72
2023/06/01 07:22:38;;;;;;;6.43;2.63;;;11.60;99.90;;;;;;5017952;28;20461;-71
2023/06/01 07:25:05;;;;;;;7.88;2.55;;;11.70;99.90;;;;;;5024074;28;20116;-71
2023/06/01 07:27:31;;;;;;;11.65;2.30;;;11.70;99.90;;;;;;5021049;28;20046;-71
2023/06/01 07:29:57;;;;;;;8.27;2.75;;;11.70;99.90;;;;;;5025277;28;20042;-71
2023/06/01 07:32:24;;;;;;;8.05;1.88;;;11.70;99.90;;;;;;5005888;28;20128;-71
2023/06/01 07:34:50;;;;;;;5.55;1.83;;;11.70;99.90;;;;;;5019595;28;20179;-70
2023/06/01 07:37:21;;;;;;;11.82;3.00;;;11.70;99.90;;;;;;5023107;28;20391;-71
2023/06/01 07:39:50;;;;;;;7.67;2.00;;;11.70;99.90;;;;;;5021521;28;20052;-71
2023/06/01 07:42:16;;;;;;;6.20;2.08;;;11.80;99.90;;;;;;5021741;28;20312;-71
2023/06/01 07:44:43;;;;;;;7.20;1.92;;;11.70;99.90;;;;;;5021311;28;20290;-71
2023/06/01 07:47:09;;;;;;;9.20;2.03;;;11.80;99.90;;;;;;5002844;28;20057;-72
2023/06/01 07:49:36;;;;;;;5.43;1.63;;;11.70;99.90;;;;;;5019591;28;20509;-71
2023/06/01 07:52:02;;;;;;;8.65;1.92;;;11.70;99.90;;;;;;5019547;28;20518;-71
2023/06/01 07:54:28;;;;;;;6.00;2.08;;;11.80;99.90;;;;;;5021397;28;20120;-72
2023/06/01 07:56:54;;;;;;;4.75;1.50;;;11.80;99.90;;;;;;5007754;28;20397;-72
2023/06/01 07:59:23;;;;;;;4.50;1.30;;;11.80;99.90;;;;;;5026703;28;20616;-71
2023/06/01 08:01:50;;;;;;;6.43;1.60;;;12.10;99.90;;;;;;5023158;28;20448;-71
2023/06/01 08:04:16;;;;;;;3.55;1.02;;;11.90;99.90;;;;;;5024256;28;20136;-72
2023/06/01 08:06:43;;;;;;;2.63;0.90;;;12.00;99.90;;;;;;5021067;28;20135;-72
2023/06/01 08:09:10;;;;;;;4.90;1.30;;;12.00;99.90;;;;;;5035918;28;20543;-71
2023/06/01 08:11:35;;;;;;;6.60;1.45;;;12.00;99.90;;;;;;5025357;28;20053;-71
2023/06/01 08:14:03;;;;;;;8.48;1.90;;;12.00;99.90;;;;;;5021993;28;20056;-72
2023/06/01 08:16:29;;;;;;;10.23;2.00;;;12.00;99.90;;;;;;5024575;28;20049;-72
2023/06/01 08:18:56;;;;;;;11.13;2.45;;;12.00;99.90;;;;;;5003717;28;20082;-72
2023/06/01 08:21:26;;;;;;;6.28;2.15;;;12.00;99.90;;;;;;5023054;28;20563;-71
2023/06/01 08:23:54;;;;;;;8.50;2.15;;;12.00;99.90;;;;;;5027504;28;20121;-72
2023/06/01 08:26:21;;;;;;;8.70;2.30;;;12.00;99.90;;;;;;5015197;28;20033;-72
2023/06/01 08:28:51;;;;;;;7.30;2.30;;;12.00;99.90;;;;;;5014192;28;20041;-72
2023/06/01 08:31:23;;;;;;;13.15;2.60;;;12.00;99.90;;;;;;5020576;28;20117;-72
2023/06/01 08:33:49;;;;;;;;;;;12.00;99.90;;;;;;5019392;28;20520;-72
2023/06/01 08:36:15;;;;;;;12.05;3.30;;;12.00;99.90;;;;;;5004890;28;19923;-71
2023/06/01 08:38:41;;;;;;;14.73;2.88;;;12.00;99.90;;;;;;5023556;28;20435;-72
2023/06/01 08:41:26;;;;;;;10.68;3.65;;;12.00;99.90;;;;;;5018633;28;20497;-71
2023/06/01 08:44:00;;;;;;;15.02;3.88;;;11.90;99.90;;;;;;5038627;28;20041;-72
2023/06/01 08:46:26;;;;;;;16.63;3.40;;;12.00;99.90;;;;;;5025206;28;20045;-72
2023/06/01 08:48:56;;;;;;;14.73;3.15;;;11.90;99.90;;;;;;5026789;28;20621;-71
2023/06/01 08:51:25;;;;;;;14.23;3.40;;;11.90;99.90;;;;;;5024194;28;20437;-71
2023/06/01 08:53:52;;;;;;;13.15;3.50;;;11.90;99.90;;;;;;5027474;28;20048;-72
2023/06/01 08:56:19;;;;;;;12.68;3.50;;;12.00;99.90;;;;;;5028833;28;20038;-72
2023/06/01 08:58:46;;;;;;;11.73;2.70;;;12.00;99.90;;;;;;5021248;28;20073;-71
2023/06/01 09:01:21;;;;;;;14.85;2.53;;;12.00;99.90;;;;;;5025416;28;20403;-72
2023/06/01 09:03:48;;;;;;;13.13;2.85;;;12.00;99.90;;;;;;5028262;28;20048;-71
2023/06/01 09:06:15;;;;;;;15.25;3.00;;;12.00;99.90;;;;;;5026756;28;20077;-71
2023/06/01 09:08:41;;;;;;;14.27;3.33;;;12.00;99.90;;;;;;5023341;28;20049;-72
2023/06/01 09:11:07;;;;;;;11.35;3.00;;;12.00;99.90;;;;;;5027729;28;20037;-72
2023/06/01 09:13:39;;;;;;;10.35;2.83;;;12.00;99.90;;;;;;5026885;28;20490;-72
2023/06/01 09:16:05;;;;;;;11.57;2.90;;;12.10;99.90;;;;;;5025702;28;20150;-72
2023/06/01 09:18:31;;;;;;;8.50;3.13;;;12.10;99.90;;;;;;5026328;28;20060;-72
2023/06/01 09:21:15;;;;;;;16.90;3.17;;;12.10;99.90;;;;;;5018816;28;20053;-72
2023/06/01 09:23:42;;;;;;;13.98;3.30;;;12.10;99.90;;;;;;5020826;28;20577;-72
2023/06/01 09:26:12;;;;;;;15.38;3.63;;;12.20;99.90;;;;;;5023644;28;20441;-72
2023/06/01 09:28:55;;;;;;;14.63;2.97;;;12.20;99.90;;;;;;5026849;28;20430;-72
2023/06/01 09:31:39;;;;;;;16.55;3.42;;;12.20;99.90;;;;;;5020849;28;20588;-72
2023/06/01 09:34:07;;;;;;;18.80;3.05;;;12.20;99.90;;;;;;5023557;28;20041;-71
2023/06/01 09:36:34;;;;;;;19.05;3.38;;;12.20;99.90;;;;;;5026785;28;20037;-72
2023/06/01 09:39:02;;;;;;;10.90;2.50;;;12.20;99.90;;;;;;5020253;28;20044;-72
2023/06/01 09:41:43;;;;;;;15.93;2.65;;;12.20;99.90;;;;;;5025277;28;20541;-71
2023/06/01 09:44:09;;;;;;;15.52;3.55;;;12.10;99.90;;;;;;5023822;28;20401;-71
2023/06/01 09:46:49;;;;;;;16.50;2.63;;;12.10;99.90;;;;;;5022463;28;20042;-71
2023/06/01 09:49:24;;;;;;;12.50;2.35;;;12.20;99.90;;;;;;5015734;28;20049;-72
2023/06/01 09:51:52;;;;;;;12.43;2.55;;;12.20;99.90;;;;;;5023509;28;20153;-71
2023/06/01 09:54:28;;;;;;;8.15;2.30;;;12.20;99.90;;;;;;5028041;28;20045;-72
2023/06/01 09:56:54;;;;;;;9.95;2.47;;;12.20;99.90;;;;;;5003603;28;20128;-72
2023/06/01 09:59:22;;;;;;;9.65;2.50;;;12.20;99.90;;;;;;5028361;28;20050;-71
2023/06/01 10:01:53;;;;;;;10.18;2.30;;;12.20;99.90;;;;;;5021999;28;20041;-71
2023/06/01 10:04:26;;;;;;;13.32;2.10;;;12.20;99.90;;;;;;5025079;28;20369;-72
2023/06/01 10:06:54;;;;;;;9.50;1.83;;;12.40;99.90;;;;;;5014854;28;20434;-71
2023/06/01 10:09:22;;;;;;;15.02;2.60;;;12.20;99.90;;;;;;5023815;28;20692;-72
2023/06/01 10:11:50;;;;;;;9.75;3.03;;;12.30;99.90;;;;;;5021202;28;20609;-71
2023/06/01 10:14:16;;;;;;;13.45;2.17;;;12.30;99.90;;;;;;5020665;28;20045;-71
2023/06/01 10:16:43;;;;;;;9.52;2.35;;;12.40;99.90;;;;;;5020289;28;20394;-71
2023/06/01 10:19:10;;;;;;;13.10;2.47;;;12.40;99.90;;;;;;5018165;28;20517;-72
2023/06/01 10:21:36;;;;;;;7.72;2.28;;;12.40;99.90;;;;;;5004328;28;20049;-72
2023/06/01 10:24:06;;;;;;;12.73;2.17;;;12.40;99.90;;;;;;5025588;28;20053;-71
2023/06/01 10:26:40;;;;;;;11.15;2.75;;;12.50;99.90;;;;;;5023706;28;20042;-72
2023/06/01 10:29:08;;;;;;;12.30;4.03;;;12.40;99.90;;;;;;5022385;28;20523;-72
2023/06/01 10:31:41;;;;;;;8.45;2.42;;;12.50;99.90;;;;;;5020175;28;20045;-72
2023/06/01 10:34:09;;;;;;;8.80;2.30;;;12.50;99.90;;;;;;5020073;28;20741;-71
2023/06/01 10:36:53;;;;;;;12.35;2.55;;;12.60;99.90;;;;;;5023111;28;20383;-72
2023/06/01 10:39:23;;;;;;;10.65;2.58;;;12.60;99.90;;;;;;5020885;28;20037;-71
2023/06/01 10:41:49;;;;;;;12.55;2.95;;;12.60;99.90;;;;;;5006213;28;20042;-71
2023/06/01 10:44:41;;;;;;;15.55;2.97;;;12.60;99.90;;;;;;5019741;28;20087;-71
2023/06/01 10:47:26;;;;;;;13.05;3.05;;;12.60;99.90;;;;;;5000657;28;20045;-71
2023/06/01 10:49:58;;;;;;;12.85;3.28;;;12.60;99.90;;;;;;5011634;28;20045;-72
2023/06/01 10:52:29;;;;;;;8.75;2.30;;;12.50;99.90;;;;;;5019940;28;20056;-72
2023/06/01 10:55:10;;;;;;;12.38;2.58;;;12.60;99.90;;;;;;5013986;28;20050;-72
2023/06/01 10:57:40;;;;;;;11.67;2.40;;;12.60;99.90;;;;;;5017754;28;20394;-72
2023/06/01 11:00:27;;;;;;;8.52;2.58;;;12.60;99.90;;;;;;5000458;28;20045;-71
2023/06/01 11:03:04;;;;;;;10.77;2.63;;;12.60;99.90;;;;;;5015267;28;22331;-72
2023/06/01 11:05:34;;;;;;;11.75;3.00;;;12.60;99.90;;;;;;5016446;28;20088;-72
2023/06/01 11:08:00;;;;;;;8.50;2.35;;;12.70;99.90;;;;;;5020077;28;20528;-72
2023/06/01 11:10:58;;;;;;;10.15;2.60;;;12.70;99.90;;;;;;5013094;28;20517;-72
2023/06/01 11:13:31;;;;;;;11.95;2.42;;;12.70;99.90;;;;;;5012778;28;20060;-71
2023/06/01 11:16:22;;;;;;;9.55;2.67;;;12.70;99.90;;;;;;5007189;28;20057;-72
2023/06/01 11:18:58;;;;;;;10.88;2.42;;;12.80;99.90;;;;;;5003183;28;21296;-72
2023/06/01 11:21:28;;;;;;;15.43;2.50;;;12.80;99.90;;;;;;5018082;28;20053;-71
2023/06/01 11:23:56;;;;;;;13.48;2.70;;;12.90;99.90;;;;;;5013458;28;20037;-72
2023/06/01 11:26:29;;;;;;;13.02;2.85;;;12.90;99.90;;;;;;5013386;28;20053;-72
2023/06/01 11:29:13;;;;;;;11.32;2.75;;;12.90;99.90;;;;;;5024973;28;20049;-72
2023/06/01 11:31:56;;;;;;;11.95;2.83;;;12.90;99.90;;;;;;5010269;28;20061;-72
2023/06/01 11:34:37;;;;;;;17.80;3.22;;;13.00;99.90;;;;;;5018928;28;21458;-72
2023/06/01 11:37:03;;;;;;;11.38;3.25;;;12.90;99.90;;;;;;5015964;28;20056;-72
2023/06/01 11:39:32;;;;;;;12.60;3.10;;;12.90;99.90;;;;;;5011138;28;20045;-72
2023/06/01 11:42:06;;;;;;;14.27;3.25;;;12.90;99.90;;;;;;5031392;28;20093;-72
2023/06/01 11:44:37;;;;;;;9.75;3.22;;;12.90;99.90;;;;;;5015223;28;20052;-71
2023/06/01 11:47:05;;;;;;;14.07;3.13;;;12.90;99.90;;;;;;5014340;28;20121;-71
2023/06/01 11:49:41;;;;;;;12.80;2.90;;;12.90;99.90;;;;;;5011411;28;20509;-71
2023/06/01 11:52:09;;;;;;;9.95;3.45;;;12.90;99.90;;;;;;5000718;28;20046;-72
2023/06/01 11:54:36;;;;;;;9.18;2.72;;;13.00;99.90;;;;;;5009233;28;20326;-73
2023/06/01 11:57:03;;;;;;;11.55;2.92;;;13.00;99.90;;;;;;5018905;28;20785;-72
2023/06/01 11:59:37;;;;;;;12.88;3.10;;;13.00;99.90;;;;;;5000085;28;20052;-72
2023/06/01 12:02:03;;;;;;;9.20;2.58;;;13.00;99.90;;;;;;5020124;28;20132;-72
2023/06/01 12:04:28;;;;;;;13.48;3.00;;;13.00;99.90;;;;;;4995781;28;20048;-73
2023/06/01 12:07:05;;;;;;;12.05;2.47;;;13.00;99.90;;;;;;4992704;28;20049;-72
2023/06/01 12:09:32;;;;;;;18.95;2.95;;;13.00;99.90;;;;;;5003760;28;20378;-72
2023/06/01 12:11:59;;;;;;;10.52;2.60;;;13.00;99.90;;;;;;5016207;28;20081;-72
2023/06/01 12:14:25;;;;;;;10.82;2.75;;;12.90;99.90;;;;;;5008312;28;20677;-71
2023/06/01 12:17:02;;;;;;;13.30;2.90;;;13.00;99.90;;;;;;5009753;28;20079;-72
2023/06/01 12:19:28;;;;;;;13.90;2.53;;;13.00;99.90;;;;;;5016051;28;20108;-73
2023/06/01 12:21:56;;;;;;;7.22;2.55;;;12.90;99.90;;;;;;5020319;28;20402;-71
2023/06/01 12:24:33;;;;;;;15.95;3.28;;;12.90;99.90;;;;;;5005169;28;20050;-72
2023/06/01 12:27:00;;;;;;;9.45;2.72;;;12.90;99.90;;;;;;5021155;28;20049;-71
2023/06/01 12:29:41;;;;;;;14.25;2.70;;;12.90;99.90;;;;;;5023694;28;20038;-71
2023/06/01 12:32:08;;;;;;;7.82;2.50;;;13.00;99.90;;;;;;5026767;28;20072;-72
2023/06/01 12:34:35;;;;;;;11.02;2.75;;;13.00;99.90;;;;;;5026529;28;20041;-71
2023/06/01 12:37:21;;;;;;;9.68;2.55;;;13.00;99.90;;;;;;5028917;28;20052;-73
2023/06/01 12:39:55;;;;;;;9.25;2.70;;;13.00;99.90;;;;;;5016608;28;20061;-72
2023/06/01 12:42:37;;;;;;;11.55;3.10;;;13.00;99.90;;;;;;5014797;28;20080;-71
2023/06/01 12:45:05;;;;;;;9.63;2.75;;;13.00;99.90;;;;;;5023415;28;20055;-71
2023/06/01 12:47:39;;;;;;;11.35;2.70;;;13.00;99.90;;;;;;5031326;28;20099;-71
2023/06/01 12:50:06;;;;;;;9.18;2.42;;;13.00;99.90;;;;;;5018760;28;20049;-72
2023/06/01 12:52:32;;;;;;;12.57;2.45;;;13.10;99.90;;;;;;5008039;28;20116;-71